Time;durP1;ratioP1;P1;durP2;ratioP2;P2;SDS_P1;SDS_P2;PMS_P1;PMS_P2;Temp;Humidity;BMP_temperature;BMP_pressure;BME280_temperature;BME280_humidity;BME280_pressure;Samples;Min_cycle;Max_cycle;Signal;HPM_P1;HPM_P2
2023/07/12 00:00:19;;;;;;;9.93;6.53;;;;;;;27.87;49.72;99508.63;4979132;28;20223;-69
2023/07/12 00:02:46;;;;;;;7.20;6.60;;;;;;;27.81;50.26;99509.84;4979424;28;20195;-68
2023/07/12 00:05:13;;;;;;;6.37;5.97;;;;;;;27.73;49.78;99503.16;4977731;28;20195;-68
2023/07/12 00:07:41;;;;;;;6.77;6.27;;;;;;;27.65;50.22;99503.09;4959563;29;20223;-68
2023/07/12 00:10:15;;;;;;;6.67;6.03;;;;;;;27.47;50.36;99504.03;4959834;28;20236;-68
2023/07/12 00:12:42;;;;;;;6.70;6.10;;;;;;;27.43;50.51;99503.84;4959665;28;20626;-68
2023/07/12 00:15:11;;;;;;;6.67;6.27;;;;;;;27.31;51.08;99502.75;4957817;28;20250;-69
2023/07/12 00:17:38;;;;;;;6.93;6.17;;;;;;;27.18;51.78;99506.25;4956856;29;20258;-68
2023/07/12 00:20:17;;;;;;;7.00;6.50;;;;;;;27.12;51.65;99502.81;4956337;29;20348;-68
2023/07/12 00:22:46;;;;;;;6.53;6.13;;;;;;;27.09;51.48;99505.34;4956788;29;20200;-68
2023/07/12 00:25:14;;;;;;;6.43;5.97;;;;;;;27.02;53.04;99502.22;4956547;29;20202;-68
2023/07/12 00:27:40;;;;;;;6.57;6.20;;;;;;;26.98;53.17;99495.75;4956658;29;20199;-68
2023/07/12 00:30:14;;;;;;;6.37;5.97;;;;;;;27.08;52.21;99512.75;4956532;29;20196;-67
2023/07/12 00:32:41;;;;;;;7.23;6.50;;;;;;;27.15;52.61;99507.66;4956294;29;20184;-67
2023/07/12 00:35:13;;;;;;;6.73;6.13;;;;;;;27.16;51.94;99503.03;4956135;29;20259;-68
2023/07/12 00:37:40;;;;;;;7.33;6.60;;;;;;;27.09;51.71;99498.00;4956837;29;20188;-67
2023/07/12 00:40:30;;;;;;;7.13;6.47;;;;;;;27.13;52.46;99500.91;4956287;29;20219;-68
2023/07/12 00:43:05;;;;;;;8.43;6.03;;;;;;;27.07;52.21;99500.19;4953566;29;20259;-68
2023/07/12 00:45:33;;;;;;;6.63;5.97;;;;;;;27.02;52.38;99503.03;4955975;29;20192;-68
2023/07/12 00:48:00;;;;;;;6.83;6.43;;;;;;;26.95;51.95;99502.63;4956022;29;20196;-68
2023/07/12 00:50:27;;;;;;;6.53;6.13;;;;;;;26.91;54.07;99492.63;4955839;29;20638;-68
2023/07/12 00:52:54;;;;;;;6.53;6.10;;;;;;;26.93;52.84;99493.94;4956386;29;20649;-68
2023/07/12 00:55:58;;;;;;;6.83;6.23;;;;;;;26.96;52.81;99487.06;4955693;29;20204;-69
2023/07/12 00:58:28;;;;;;;6.63;6.23;;;;;;;26.90;52.85;99493.75;4955873;29;20188;-69
2023/07/12 01:00:56;;;;;;;7.03;6.40;;;;;;;26.76;52.77;99487.47;4955625;29;20252;-68
2023/07/12 01:03:25;;;;;;;6.77;6.37;;;;;;;26.86;53.43;99490.81;4955982;29;20195;-68
2023/07/12 01:05:52;;;;;;;6.50;6.10;;;;;;;26.94;53.15;99486.56;4962428;28;20195;-68
2023/07/12 01:08:21;;;;;;;7.27;6.57;;;;;;;26.96;51.72;99487.06;4975327;28;20251;-68
2023/07/12 01:10:48;;;;;;;6.30;5.90;;;;;;;26.96;52.12;99481.63;4975296;28;20293;-68
2023/07/12 01:13:21;;;;;;;7.27;6.77;;;;;;;27.01;52.01;99486.97;4975133;28;20195;-68
2023/07/12 01:15:48;;;;;;;6.77;6.20;;;;;;;27.07;52.51;99483.81;4974782;28;20580;-67
2023/07/12 01:18:15;;;;;;;7.47;6.00;;;;;;;27.13;52.07;99492.72;4975034;28;20258;-68
2023/07/12 01:20:43;;;;;;;7.10;5.87;;;;;;;27.22;51.85;99488.19;4974817;28;20281;-68
2023/07/12 01:23:12;;;;;;;6.77;6.27;;;;;;;27.18;50.20;99484.44;4974637;28;20738;-68
2023/07/12 01:25:41;;;;;;;6.80;6.23;;;;;;;27.09;51.07;99481.63;4974355;28;20203;-68
2023/07/12 01:28:08;;;;;;;6.90;6.03;;;;;;;27.08;51.36;99469.09;4974527;28;20722;-68
2023/07/12 01:30:36;;;;;;;6.27;5.80;;;;;;;27.10;52.50;99472.31;4974472;28;20723;-68
2023/07/12 01:33:03;;;;;;;6.00;5.50;;;;;;;27.08;50.26;99479.19;4974755;28;20254;-69
2023/07/12 01:35:31;;;;;;;6.73;6.13;;;;;;;27.01;51.08;99478.78;4974608;28;20202;-68
2023/07/12 01:37:57;;;;;;;7.13;6.63;;;;;;;26.97;50.87;99472.31;4974369;28;20199;-68
2023/07/12 01:40:25;;;;;;;10.13;6.57;;;;;;;26.97;50.64;99483.22;4974432;28;20285;-68
2023/07/12 01:42:52;;;;;;;7.43;6.93;;;;;;;27.03;51.14;99479.31;4974279;28;20565;-68
2023/07/12 01:45:19;;;;;;;10.47;6.40;;;;;;;27.11;51.54;99484.06;4974418;28;20628;-68
2023/07/12 01:47:45;;;;;;;8.50;5.90;;;;;;;27.17;51.41;99475.47;4974744;28;20259;-68
2023/07/12 01:50:12;;;;;;;9.47;6.37;;;;;;;27.24;50.90;99477.81;4974069;28;20258;-68
2023/07/12 01:52:39;;;;;;;7.97;6.63;;;;;;;27.30;50.00;99482.03;4974167;28;20242;-68
2023/07/12 01:55:06;;;;;;;6.20;5.90;;;;;;;27.33;51.08;99474.06;4974399;28;20259;-67
2023/07/12 01:57:34;;;;;;;6.33;5.83;;;;;;;27.36;51.00;99487.06;4973923;28;20191;-67
2023/07/12 02:00:00;;;;;;;6.77;6.37;;;;;;;27.36;51.24;99481.59;4974194;28;20266;-67
2023/07/12 02:02:28;;;;;;;6.90;6.40;;;;;;;27.29;50.41;99477.69;4973838;28;20250;-67
2023/07/12 02:04:55;;;;;;;6.53;6.13;;;;;;;27.17;50.03;99485.53;4973920;28;20195;-67
2023/07/12 02:07:22;;;;;;;7.47;6.93;;;;;;;27.15;51.16;99482.31;4955175;28;20202;-67
2023/07/12 02:10:11;;;;;;;7.77;7.13;;;;;;;27.15;50.67;99477.66;4954578;29;20735;-68
2023/07/12 02:12:40;;;;;;;7.00;6.60;;;;;;;27.16;50.60;99481.22;4954497;29;20723;-67
2023/07/12 02:15:07;;;;;;;7.60;7.07;;;;;;;27.10;51.01;99493.31;4954732;29;20251;-67
2023/07/12 02:17:34;;;;;;;8.90;6.30;;;;;;;27.09;51.36;99486.25;4954596;29;20247;-67
2023/07/12 02:20:01;;;;;;;7.10;6.43;;;;;;;27.11;51.78;99484.06;4954261;29;20251;-67
2023/07/12 02:22:30;;;;;;;6.47;5.93;;;;;;;27.14;51.83;99495.16;4954247;29;20564;-67
2023/07/12 02:24:57;;;;;;;7.27;6.77;;;;;;;27.18;51.15;99496.16;4954336;29;20227;-67
2023/07/12 02:27:23;;;;;;;7.80;7.10;;;;;;;27.18;51.17;99498.88;4954112;29;20192;-67
2023/07/12 02:29:52;;;;;;;7.83;7.17;;;;;;;27.17;51.11;99499.19;4954271;29;20200;-67
2023/07/12 02:32:20;;;;;;;7.97;7.43;;;;;;;27.14;51.13;99497.06;4954018;29;20200;-67
2023/07/12 02:34:47;;;;;;;7.47;6.77;;;;;;;27.12;51.28;99500.09;4954367;29;20643;-67
2023/07/12 02:37:14;;;;;;;8.20;7.60;;;;;;;27.09;51.57;99499.91;4953836;28;20192;-67
2023/07/12 02:39:41;;;;;;;7.90;7.20;;;;;;;27.10;51.99;99493.31;4953998;29;20200;-67
2023/07/12 02:42:07;;;;;;;10.20;7.10;;;;;;;27.12;51.76;99502.03;4953930;29;20196;-67
2023/07/12 02:44:34;;;;;;;7.47;6.87;;;;;;;27.13;51.97;99509.09;4954562;29;20192;-66
2023/07/12 02:47:02;;;;;;;7.90;7.20;;;;;;;27.15;51.68;99506.88;4954261;29;20196;-67
2023/07/12 02:49:29;;;;;;;7.93;7.23;;;;;;;27.21;52.00;99516.59;4953877;29;20746;-67
2023/07/12 02:51:55;;;;;;;13.43;7.47;;;;;;;27.24;51.50;99507.81;4953958;29;20582;-67
2023/07/12 02:54:22;;;;;;;12.03;8.07;;;;;;;27.23;51.47;99512.44;4954124;29;20263;-67
2023/07/12 02:56:49;;;;;;;7.90;7.13;;;;;;;27.23;52.03;99514.38;4954322;29;20203;-68
2023/07/12 02:59:15;;;;;;;10.30;7.83;;;;;;;27.24;51.56;99516.78;4954056;29;20255;-68
2023/07/12 03:01:42;;;;;;;8.70;7.50;;;;;;;27.26;51.87;99519.22;4953656;29;20604;-67
2023/07/12 03:04:10;;;;;;;9.13;7.40;;;;;;;27.28;51.65;99528.69;4954116;29;20578;-69
2023/07/12 03:06:37;;;;;;;12.43;7.67;;;;;;;27.32;51.72;99531.66;4966303;28;20701;-68
2023/07/12 03:09:04;;;;;;;8.63;7.83;;;;;;;27.35;51.01;99531.03;4973185;28;20234;-68
2023/07/12 03:11:31;;;;;;;9.60;7.63;;;;;;;27.32;51.55;99526.97;4973160;28;20199;-68
2023/07/12 03:13:58;;;;;;;14.77;8.80;;;;;;;27.30;51.42;99531.94;4973293;28;20191;-67
2023/07/12 03:16:24;;;;;;;12.60;7.77;;;;;;;27.03;50.74;99536.56;4973156;28;20572;-68
2023/07/12 03:18:52;;;;;;;9.17;7.83;;;;;;;26.96;52.02;99530.69;4972933;28;20250;-67
2023/07/12 03:21:20;;;;;;;8.90;7.63;;;;;;;26.90;51.94;99526.47;4972919;28;20744;-67
2023/07/12 03:23:47;;;;;;;8.73;7.87;;;;;;;26.84;52.77;99536.66;4972303;28;20676;-69
2023/07/12 03:26:14;;;;;;;9.23;7.47;;;;;;;26.85;52.45;99530.09;4953495;29;20200;-68
2023/07/12 03:28:41;;;;;;;8.67;7.80;;;;;;;26.88;50.98;99534.13;4953775;29;20196;-68
2023/07/12 03:31:13;;;;;;;9.17;8.17;;;;;;;26.84;52.07;99535.84;4953853;28;20631;-68
2023/07/12 03:33:40;;;;;;;8.40;7.70;;;;;;;26.82;52.04;99529.88;4953828;29;20246;-67
2023/07/12 03:36:06;;;;;;;9.27;7.73;;;;;;;26.98;52.01;99536.66;4953854;29;20254;-68
2023/07/12 03:38:35;;;;;;;8.40;7.67;;;;;;;27.02;51.43;99534.94;4953582;28;20200;-68
2023/07/12 03:41:03;;;;;;;10.40;7.80;;;;;;;27.15;51.49;99539.59;4953718;29;20236;-67
2023/07/12 03:43:31;;;;;;;9.20;7.40;;;;;;;27.29;51.13;99551.34;4953292;29;20192;-67
2023/07/12 03:45:57;;;;;;;8.93;8.10;;;;;;;27.44;50.18;99553.78;4953794;29;20192;-67
2023/07/12 03:48:25;;;;;;;12.07;8.00;;;;;;;27.59;50.27;99550.72;4953261;28;20198;-67
2023/07/12 03:50:55;;;;;;;8.90;7.97;;;;;;;27.66;49.30;99559.31;4957252;28;20203;-67
2023/07/12 03:53:22;;;;;;;8.73;7.83;;;;;;;27.52;50.04;99555.78;4957139;28;20196;-67
2023/07/12 03:55:50;;;;;;;12.03;7.60;;;;;;;27.57;49.62;99552.94;4956767;29;20675;-67
2023/07/12 03:58:20;;;;;;;11.63;7.60;;;;;;;27.72;49.79;99556.16;4957101;29;20196;-68
2023/07/12 04:00:49;;;;;;;14.10;8.13;;;;;;;27.78;49.29;99554.13;4957060;29;20322;-67
2023/07/12 04:03:17;;;;;;;13.47;8.43;;;;;;;27.66;49.63;99551.94;4956946;29;20200;-66
2023/07/12 04:05:45;;;;;;;8.20;7.40;;;;;;;27.55;49.96;99555.16;4962186;28;20731;-66
2023/07/12 04:08:13;;;;;;;10.87;7.93;;;;;;;27.54;49.06;99559.00;4975884;28;20234;-68
2023/07/12 04:10:40;;;;;;;11.40;7.57;;;;;;;27.48;49.57;99554.78;4976521;28;20301;-66
2023/07/12 04:13:08;;;;;;;14.43;8.50;;;;;;;27.65;49.87;99554.97;4976260;28;20254;-68
2023/07/12 04:15:36;;;;;;;8.77;7.93;;;;;;;28.09;48.64;99549.63;4961368;28;20200;-68
2023/07/12 04:18:04;;;;;;;15.43;8.57;;;;;;;28.57;46.57;99561.56;4956680;29;20259;-69
2023/07/12 04:20:31;;;;;;;7.73;7.17;;;;;;;28.95;46.11;99562.78;4956694;29;20319;-68
2023/07/12 04:22:57;;;;;;;8.93;7.30;;;;;;;29.37;44.67;99567.66;4956575;29;20200;-68
2023/07/12 04:25:24;;;;;;;15.50;7.37;;;;;;;29.80;44.04;99571.31;4956420;29;20201;-69
2023/07/12 04:27:51;;;;;;;8.43;7.80;;;;;;;30.31;42.65;99563.16;4955520;29;20668;-68
2023/07/12 04:30:19;;;;;;;51.83;11.43;;;;;;;30.76;41.35;99575.41;4955860;29;20203;-68
2023/07/12 04:32:47;;;;;;;15.77;7.60;;;;;;;31.14;40.56;99581.72;4956223;29;20196;-68
2023/07/12 04:35:14;;;;;;;13.77;7.90;;;;;;;31.42;39.62;99582.94;4956132;29;20288;-68
2023/07/12 04:37:45;;;;;;;17.73;7.83;;;;;;;31.70;38.48;99580.50;4956234;29;20199;-69
2023/07/12 04:40:13;;;;;;;8.70;7.90;;;;;;;31.86;37.77;99587.91;4956211;29;20317;-69
2023/07/12 04:42:40;;;;;;;17.83;8.30;;;;;;;31.98;38.31;99582.47;4956197;29;20267;-68
2023/07/12 04:45:07;;;;;;;17.60;8.00;;;;;;;32.10;37.60;99585.28;4955909;29;20743;-68
2023/07/12 04:47:36;;;;;;;20.80;8.40;;;;;;;32.30;37.36;99581.75;4956134;29;20251;-69
2023/07/12 04:50:03;;;;;;;21.90;8.47;;;;;;;32.31;37.33;99582.56;4955848;29;20251;-70
2023/07/12 04:52:30;;;;;;;22.13;8.27;;;;;;;32.47;37.26;99576.09;4956001;29;20258;-69
2023/07/12 04:54:58;;;;;;;23.50;8.53;;;;;;;32.73;36.43;99584.91;4955428;29;20199;-68
2023/07/12 04:57:25;;;;;;;24.93;8.67;;;;;;;32.94;35.61;99591.19;4955545;29;20228;-68
2023/07/12 04:59:52;;;;;;;13.17;7.53;;;;;;;33.11;35.45;99590.97;4955113;28;20192;-70
2023/07/12 05:02:18;;;;;;;15.40;7.93;;;;;;;33.44;35.18;99592.91;4954885;28;20278;-70
2023/07/12 05:04:47;;;;;;;21.17;8.27;;;;;;;33.72;34.92;99602.06;4955342;28;20259;-70
2023/07/12 05:07:13;;;;;;;13.87;7.80;;;;;;;34.15;34.32;99607.78;4955268;28;20200;-69
2023/07/12 05:09:40;;;;;;;17.95;8.25;;;;;;;34.78;33.57;99617.94;4958268;28;20289;-69
2023/07/12 05:12:08;;;;;;;22.75;8.40;;;;;;;35.58;32.23;99605.47;4974499;28;20210;-69
2023/07/12 05:14:35;;;;;;;16.65;8.07;;;;;;;36.01;30.85;99614.44;4972338;28;20203;-69
2023/07/12 05:17:03;;;;;;;15.57;7.50;;;;;;;36.43;30.56;99618.16;4955339;29;20287;-69
2023/07/12 05:19:30;;;;;;;12.40;7.47;;;;;;;37.08;29.48;99617.09;4954809;29;20208;-69
2023/07/12 05:21:58;;;;;;;13.90;7.72;;;;;;;37.42;29.01;99629.19;4954451;29;20286;-69
2023/07/12 05:24:24;;;;;;;12.65;7.45;;;;;;;37.80;27.91;99622.72;4954454;29;20196;-70
2023/07/12 05:26:51;;;;;;;12.90;6.65;;;;;;;37.95;27.92;99630.88;4954198;29;20204;-70
2023/07/12 05:29:18;;;;;;;22.55;8.15;;;;;;;38.25;27.88;99612.28;4954284;29;20200;-70
2023/07/12 05:31:44;;;;;;;17.05;8.07;;;;;;;38.78;27.14;99627.66;4952883;29;20204;-69
2023/07/12 05:34:11;;;;;;;9.57;7.70;;;;;;;38.98;26.95;99617.19;4953980;29;20200;-73
2023/07/12 05:36:38;;;;;;;16.30;8.00;;;;;;;39.05;26.53;99611.69;4953614;29;20263;-70
2023/07/12 05:39:06;;;;;;;20.40;7.50;;;;;;;38.88;26.82;99613.09;4953266;29;20255;-70
2023/07/12 05:41:33;;;;;;;15.02;7.38;;;;;;;39.08;25.95;99610.94;4953978;29;20287;-70
2023/07/12 05:43:59;;;;;;;15.35;7.32;;;;;;;38.87;26.74;99608.69;4954255;29;20196;-68
2023/07/12 05:46:27;;;;;;;17.02;7.65;;;;;;;38.72;26.63;99608.94;4953532;29;20247;-71
2023/07/12 05:48:54;;;;;;;38.47;9.73;;;;;;;38.65;26.88;99614.44;4952956;29;20200;-69
2023/07/12 05:51:21;;;;;;;15.40;7.68;;;;;;;38.69;26.34;99618.81;4953085;29;20263;-75
2023/07/12 05:53:48;;;;;;;23.63;7.88;;;;;;;38.45;27.05;99616.50;4955873;28;20191;-71
2023/07/12 05:56:16;;;;;;;26.33;7.70;;;;;;;38.29;26.70;99618.69;4954756;28;20746;-72
2023/07/12 05:58:43;;;;;;;8.35;7.30;;;;;;;38.20;26.61;99620.94;4952622;29;20265;-72
2023/07/12 06:01:09;;;;;;;19.52;6.95;;;;;;;38.18;27.07;99628.06;4949507;29;20219;-72
2023/07/12 06:03:37;;;;;;;10.38;7.10;;;;;;;37.69;27.23;99628.09;4953336;28;20668;-73
2023/07/12 06:06:06;;;;;;;10.63;7.40;;;;;;;37.67;27.75;99624.09;4953265;28;20286;-69
2023/07/12 06:08:33;;;;;;;15.73;7.35;;;;;;;37.86;27.85;99624.78;4953409;29;20203;-71
2023/07/12 06:10:59;;;;;;;14.70;7.72;;;;;;;37.85;27.25;99625.97;4953049;29;20267;-70
2023/07/12 06:13:28;;;;;;;10.43;6.97;;;;;;;37.88;27.70;99630.75;4952141;28;20196;-72
2023/07/12 06:15:55;;;;;;;13.10;7.45;;;;;;;37.95;27.43;99622.53;4952666;29;20200;-69
2023/07/12 06:18:23;;;;;;;13.25;7.85;;;;;;;38.26;26.81;99630.56;4952930;29;20628;-75
2023/07/12 06:20:56;;;;;;;12.30;7.55;;;;;;;38.04;26.94;99625.09;4957927;28;20267;-69
2023/07/12 06:23:23;;;;;;;39.25;9.07;;;;;;;38.06;26.75;99626.31;4956406;28;20688;-70
2023/07/12 06:25:50;;;;;;;9.63;6.35;;;;;;;38.11;25.52;99631.53;4953737;29;20196;-70
2023/07/12 06:28:17;;;;;;;13.25;6.70;;;;;;;38.20;25.64;99625.72;4954206;29;20204;-69
2023/07/12 06:30:45;;;;;;;10.05;7.18;;;;;;;38.51;26.89;99617.84;4953488;29;20239;-71
2023/07/12 06:33:12;;;;;;;30.70;7.28;;;;;;;38.58;26.30;99614.34;4953840;28;20262;-69
2023/07/12 06:35:40;;;;;;;20.92;7.80;;;;;;;38.67;26.16;99615.66;4965549;28;20248;-67
2023/07/12 06:38:07;;;;;;;10.90;6.65;;;;;;;38.75;25.98;99614.53;4952638;28;20195;-67
2023/07/12 06:40:33;;;;;;;13.25;6.57;;;;;;;38.90;25.32;99626.63;4953328;29;20264;-67
2023/07/12 06:43:00;;;;;;;33.50;7.70;;;;;;;39.13;25.31;99628.06;4952119;29;20707;-69
2023/07/12 06:45:27;;;;;;;15.35;7.05;;;;;;;39.50;25.69;99619.69;4952967;28;20191;-67
2023/07/12 06:47:55;;;;;;;12.02;6.32;;;;;;;39.59;24.86;99618.19;4953362;28;20204;-67
2023/07/12 06:50:22;;;;;;;11.98;5.90;;;;;;;39.95;24.40;99617.28;4952820;29;20259;-67
2023/07/12 06:52:49;;;;;;;11.73;6.30;;;;;;;40.12;24.18;99619.34;4953675;28;20195;-68
2023/07/12 06:55:16;;;;;;;10.40;6.30;;;;;;;40.19;24.27;99616.66;4952394;28;20296;-68
2023/07/12 06:57:43;;;;;;;7.22;6.72;;;;;;;40.30;23.73;99617.47;4952876;29;20225;-69
2023/07/12 07:00:12;;;;;;;40.92;8.32;;;;;;;40.16;24.35;99616.59;4952416;29;20196;-69
2023/07/12 07:02:39;;;;;;;13.25;6.47;;;;;;;39.98;24.46;99610.13;4952541;29;20282;-68
2023/07/12 07:05:07;;;;;;;9.20;6.60;;;;;;;39.83;24.08;99614.81;4951412;28;20231;-69
2023/07/12 07:07:34;;;;;;;9.10;5.93;;;;;;;39.95;24.03;99620.06;4953383;28;20200;-69
2023/07/12 07:10:01;;;;;;;10.80;6.43;;;;;;;40.14;23.78;99614.22;4952201;29;20290;-69
2023/07/12 07:12:29;;;;;;;18.27;6.75;;;;;;;40.25;23.95;99611.53;4952344;28;20262;-69
2023/07/12 07:14:56;;;;;;;6.68;5.80;;;;;;;40.01;23.64;99604.56;4952558;29;20196;-73
2023/07/12 07:17:23;;;;;;;40.28;9.05;;;;;;;40.16;22.97;99609.03;4951907;29;20200;-69
2023/07/12 07:19:50;;;;;;;8.75;6.85;;;;;;;40.02;23.47;99606.19;4952706;29;20191;-69
2023/07/12 07:22:18;;;;;;;12.75;6.45;;;;;;;40.12;23.31;99599.88;4951689;29;20274;-70
2023/07/12 07:24:45;;;;;;;12.27;6.00;;;;;;;40.37;23.74;99609.16;4951732;28;20196;-72
2023/07/12 07:27:12;;;;;;;76.65;10.80;;;;;;;40.45;23.57;99612.78;4955193;29;20263;-72
2023/07/12 07:29:39;;;;;;;7.75;5.75;;;;;;;40.21;22.94;99605.91;4955285;29;20196;-71
2023/07/12 07:32:06;;;;;;;10.93;5.88;;;;;;;40.01;23.54;99604.56;4954498;28;20628;-68
2023/07/12 07:34:33;;;;;;;23.25;7.38;;;;;;;40.24;23.46;99599.56;4966934;28;20195;-68
2023/07/12 07:37:00;;;;;;;6.07;5.45;;;;;;;39.94;23.39;99603.75;4964551;28;20575;-69
2023/07/12 07:39:28;;;;;;;9.30;6.75;;;;;;;39.80;23.45;99609.22;4956312;29;20192;-69
2023/07/12 07:41:55;;;;;;;11.18;6.30;;;;;;;39.96;23.17;99601.34;4955848;29;20275;-68
2023/07/12 07:44:22;;;;;;;9.38;6.20;;;;;;;40.21;23.19;99597.56;4956374;29;20231;-71
2023/07/12 07:46:48;;;;;;;6.35;5.85;;;;;;;40.53;22.93;99609.63;4956678;29;20200;-69
2023/07/12 07:49:15;;;;;;;5.90;5.32;;;;;;;40.76;21.87;99612.94;4956266;29;20196;-69
2023/07/12 07:51:42;;;;;;;5.15;4.70;;;;;;;40.73;22.21;99613.72;4955698;29;20259;-69
2023/07/12 07:54:08;;;;;;;6.38;5.05;;;;;;;40.52;22.23;99607.25;4956181;29;20731;-71
2023/07/12 07:56:36;;;;;;;7.00;4.85;;;;;;;40.71;22.50;99609.72;4956482;29;20195;-70
2023/07/12 07:59:03;;;;;;;9.73;5.28;;;;;;;40.64;21.97;99599.38;4955902;29;20258;-71
2023/07/12 08:01:30;;;;;;;7.32;4.60;;;;;;;40.85;22.42;99607.78;4955345;28;20299;-69
2023/07/12 08:03:56;;;;;;;12.00;4.88;;;;;;;40.74;22.19;99603.38;4956568;29;20346;-70
2023/07/12 08:06:23;;;;;;;12.68;5.00;;;;;;;40.69;22.69;99600.94;4957176;28;20222;-71
2023/07/12 08:08:50;;;;;;;11.20;5.47;;;;;;;40.82;22.66;99605.78;4955213;29;20255;-71
2023/07/12 08:11:17;;;;;;;10.18;5.28;;;;;;;40.79;22.80;99606.56;4954936;29;20192;-71
2023/07/12 08:13:45;;;;;;;9.05;5.05;;;;;;;40.26;22.71;99611.09;4954675;29;20240;-69
2023/07/12 08:16:12;;;;;;;5.45;4.88;;;;;;;40.15;23.36;99617.78;4955272;29;20189;-71
2023/07/12 08:18:39;;;;;;;16.45;5.53;;;;;;;40.05;23.63;99605.41;4955003;29;20200;-69
2023/07/12 08:21:05;;;;;;;11.93;5.43;;;;;;;39.75;23.10;99613.13;4955206;29;20202;-70
2023/07/12 08:23:32;;;;;;;7.57;5.55;;;;;;;39.86;23.13;99605.69;4956088;29;20278;-69
2023/07/12 08:25:59;;;;;;;5.80;5.25;;;;;;;39.76;23.04;99602.84;4955362;29;20203;-72
2023/07/12 08:28:26;;;;;;;7.00;5.32;;;;;;;39.50;23.93;99600.22;4955273;29;20195;-70
2023/07/12 08:30:54;;;;;;;10.30;5.00;;;;;;;40.02;23.28;99595.06;4954723;29;20268;-71
2023/07/12 08:33:21;;;;;;;8.88;6.00;;;;;;;40.08;23.69;99589.91;4955665;29;20754;-70
2023/07/12 08:35:48;;;;;;;10.85;5.05;;;;;;;40.09;23.44;99589.50;4954136;28;20744;-70
2023/07/12 08:38:15;;;;;;;8.27;5.07;;;;;;;39.62;23.04;99586.81;4953855;29;20763;-69
2023/07/12 08:40:45;;;;;;;5.38;4.88;;;;;;;39.76;23.45;99575.78;4954677;29;20200;-69
2023/07/12 08:43:15;;;;;;;6.13;5.25;;;;;;;39.52;23.66;99587.50;4955374;29;20216;-71
2023/07/12 08:45:44;;;;;;;10.40;5.82;;;;;;;39.76;23.10;99572.22;4955574;29;20189;-68
2023/07/12 08:48:19;;;;;;;11.60;5.50;;;;;;;40.27;23.22;99589.63;4938384;29;20218;-69
2023/07/12 08:50:48;;;;;;;7.35;5.47;;;;;;;40.18;23.02;99589.97;4954874;29;20652;-70
2023/07/12 08:53:19;;;;;;;9.43;5.32;;;;;;;40.49;23.08;99592.09;4954110;28;20200;-72
2023/07/12 08:55:46;;;;;;;9.20;5.10;;;;;;;40.75;23.09;99589.03;4954227;28;20192;-70
2023/07/12 08:58:22;;;;;;;10.10;5.38;;;;;;;40.81;22.76;99592.22;4953709;28;20743;-72
2023/07/12 09:00:55;;;;;;;9.70;5.25;;;;;;;40.20;22.33;99587.63;4959931;28;20203;-70
2023/07/12 09:03:23;;;;;;;5.55;4.65;;;;;;;40.46;21.94;99601.25;4943723;28;20215;-70
2023/07/12 09:05:49;;;;;;;5.57;5.13;;;;;;;40.75;21.95;99596.59;4955871;28;20192;-73
2023/07/12 09:08:19;;;;;;;11.23;5.45;;;;;;;40.73;22.29;99597.00;4954312;28;20255;-71
2023/07/12 09:10:49;;;;;;;5.95;5.40;;;;;;;40.77;22.12;99597.81;4952823;28;20580;-73
2023/07/12 09:13:18;;;;;;;14.50;5.18;;;;;;;40.73;22.29;99602.56;4953701;28;20743;-71
2023/07/12 09:15:47;;;;;;;6.93;5.18;;;;;;;40.74;22.88;99595.81;4949383;28;20747;-71
2023/07/12 09:18:29;;;;;;;5.40;5.03;;;;;;;40.96;23.01;99593.84;4954859;28;20195;-70
2023/07/12 09:20:57;;;;;;;6.82;4.65;;;;;;;40.75;23.32;99589.03;4951239;28;20325;-69
2023/07/12 09:23:24;;;;;;;10.32;5.38;;;;;;;40.55;23.01;99595.31;4956263;28;20228;-69
2023/07/12 09:25:55;;;;;;;5.30;4.55;;;;;;;40.28;23.44;99580.88;4950731;28;20664;-71
2023/07/12 09:28:22;;;;;;;5.28;4.78;;;;;;;40.54;22.66;99577.00;4954160;28;20192;-70
2023/07/12 09:30:51;;;;;;;5.40;5.00;;;;;;;40.81;22.97;99581.88;4953643;28;20727;-74
2023/07/12 09:33:22;;;;;;;9.50;5.13;;;;;;;40.15;23.25;99589.94;4952040;28;20230;-71
2023/07/12 09:35:51;;;;;;;8.15;5.30;;;;;;;39.75;23.61;99579.75;4947589;28;20691;-70
2023/07/12 09:38:24;;;;;;;11.95;5.07;;;;;;;39.00;25.02;99592.59;4956189;28;20196;-70
2023/07/12 09:40:52;;;;;;;12.57;5.32;;;;;;;39.22;24.74;99584.06;4949371;28;20195;-71
2023/07/12 09:43:22;;;;;;;9.93;6.45;;;;;;;39.28;25.07;99588.13;4953404;28;20282;-72
2023/07/12 09:45:59;;;;;;;9.50;6.25;;;;;;;39.61;24.84;99590.78;4952018;28;20232;-69
2023/07/12 09:48:33;;;;;;;6.57;4.47;;;;;;;39.74;24.38;99578.16;4959815;28;20247;-70
2023/07/12 09:51:20;;;;;;;14.25;5.90;;;;;;;39.78;24.56;99589.31;4952496;28;20242;-70
2023/07/12 09:53:52;;;;;;;5.90;5.28;;;;;;;39.71;24.38;99590.06;4952464;28;20191;-70
2023/07/12 09:56:25;;;;;;;8.02;6.30;;;;;;;39.49;24.11;99554.94;4954042;28;20805;-71
2023/07/12 09:58:59;;;;;;;10.40;5.88;;;;;;;39.69;24.41;99586.06;4944186;28;20192;-69
2023/07/12 10:01:36;;;;;;;10.18;7.10;;;;;;;39.57;24.35;99580.81;4953225;28;20192;-69
2023/07/12 10:04:17;;;;;;;16.98;7.65;;;;;;;39.70;24.61;99571.78;4953083;28;20267;-70
2023/07/12 10:06:48;;;;;;;9.55;6.53;;;;;;;39.64;24.71;99562.16;4951684;28;20682;-72
2023/07/12 10:09:20;;;;;;;8.90;5.75;;;;;;;39.74;24.29;99561.47;4952401;28;20239;-73
2023/07/12 10:11:54;;;;;;;6.35;5.57;;;;;;;39.96;24.54;99552.06;4946156;28;20238;-72
2023/07/12 10:14:31;;;;;;;15.98;5.22;;;;;;;39.96;24.04;99551.25;4952203;29;20191;-72
2023/07/12 10:16:58;;;;;;;88.70;12.85;;;;;;;39.98;24.49;99535.78;4952207;28;20204;-75
2023/07/12 10:19:29;;;;;;;7.50;5.25;;;;;;;40.25;23.78;99534.31;4953488;29;20642;-70
2023/07/12 10:22:00;;;;;;;12.43;5.30;;;;;;;40.45;23.22;99534.78;4953255;29;20338;-74
2023/07/12 10:24:34;;;;;;;8.27;5.72;;;;;;;40.42;24.08;99533.59;4952553;29;20207;-69
2023/07/12 10:27:04;;;;;;;8.00;4.88;;;;;;;39.89;23.41;99526.19;4953093;29;20192;-71
2023/07/12 10:29:40;;;;;;;5.65;5.25;;;;;;;39.95;22.89;99517.06;4953477;29;20195;-70
2023/07/12 10:32:13;;;;;;;7.18;5.63;;;;;;;39.83;23.46;99514.63;4952760;29;20208;-69
2023/07/12 10:34:48;;;;;;;6.80;4.95;;;;;;;40.09;23.70;99517.13;4952897;29;20188;-72
2023/07/12 10:37:25;;;;;;;6.80;5.60;;;;;;;39.95;22.85;99505.94;4960542;28;20948;-71
2023/07/12 10:39:52;;;;;;;20.98;6.90;;;;;;;40.12;22.59;99521.91;4962496;28;20188;-71
2023/07/12 10:42:27;;;;;;;11.32;5.68;;;;;;;40.10;22.82;99521.53;4955269;28;20247;-72
2023/07/12 10:44:57;;;;;;;5.53;5.13;;;;;;;39.87;22.50;99515.44;4951507;29;20652;-73
2023/07/12 10:47:29;;;;;;;9.68;5.70;;;;;;;40.10;22.69;99513.19;4951568;29;20184;-71
2023/07/12 10:50:01;;;;;;;6.13;5.72;;;;;;;40.01;22.64;99506.38;4952181;29;20188;-71
2023/07/12 10:52:31;;;;;;;6.18;5.78;;;;;;;40.00;21.61;99491.63;4951436;29;20827;-71
2023/07/12 10:55:16;;;;;;;51.67;7.82;;;;;;;40.25;22.40;99508.47;4952556;29;20638;-69
2023/07/12 10:57:46;;;;;;;6.00;5.70;;;;;;;40.21;22.51;99497.31;4953678;28;20196;-69
2023/07/12 11:00:27;;;;;;;7.68;5.78;;;;;;;40.52;21.83;99504.16;4952223;29;20248;-70
2023/07/12 11:03:16;;;;;;;8.82;6.18;;;;;;;40.77;20.76;99500.25;4953103;29;20783;-69
2023/07/12 11:05:46;;;;;;;6.03;5.57;;;;;;;40.53;21.86;99491.81;4958733;28;20292;-70
2023/07/12 11:08:53;;;;;;;6.53;5.40;;;;;;;40.69;22.22;99489.50;4967649;28;20203;-68
2023/07/12 11:11:42;;;;;;;13.10;5.57;;;;;;;40.69;22.18;99483.91;4969234;28;20179;-70
2023/07/12 11:14:19;;;;;;;5.57;5.13;;;;;;;40.80;21.90;99488.31;4952964;29;20271;-70
2023/07/12 11:16:50;;;;;;;14.10;6.20;;;;;;;40.72;21.81;99489.50;4952983;28;20243;-71
2023/07/12 11:19:37;;;;;;;8.95;6.30;;;;;;;40.85;21.04;99482.34;4952386;29;20203;-71
2023/07/12 11:22:12;;;;;;;6.80;6.20;;;;;;;41.10;20.39;99492.75;4944205;28;20223;-71
2023/07/12 11:24:49;;;;;;;9.55;6.40;;;;;;;41.07;20.36;99491.56;4959899;28;20274;-73
2023/07/12 11:27:32;;;;;;;8.35;6.28;;;;;;;41.20;20.71;99489.94;4953305;29;20199;-71
2023/07/12 11:30:15;;;;;;;8.98;7.20;;;;;;;41.43;20.19;99472.81;4953139;29;20207;-72
2023/07/12 11:32:45;;;;;;;6.68;6.18;;;;;;;41.36;19.79;99473.59;4953203;29;20212;-72
2023/07/12 11:35:17;;;;;;;13.95;6.97;;;;;;;41.07;19.93;99465.66;4952874;28;20188;-72
2023/07/12 11:37:48;;;;;;;10.20;6.30;;;;;;;41.02;20.30;99468.84;4953060;29;20291;-71